Time;durP1;ratioP1;P1;durP2;ratioP2;P2;SDS_P1;SDS_P2;PMS_P1;PMS_P2;Temp;Humidity;BMP_temperature;BMP_pressure;BME280_temperature;BME280_humidity;BME280_pressure;Samples;Min_cycle;Max_cycle;Signal;HPM_P1;HPM_P2
2023/08/08 00:01:02;;;;;;;2.47;1.35;;;;;;;12.93;61.71;99939.84;10471715;28;20135;-60
2023/08/08 00:06:04;;;;;;;1.33;0.88;;;;;;;12.92;61.65;99946.88;10474512;28;20063;-60
2023/08/08 00:11:06;;;;;;;1.65;1.00;;;;;;;12.80;61.73;99936.41;10474768;28;20054;-60
2023/08/08 00:16:08;;;;;;;1.88;1.40;;;;;;;12.62;62.48;99933.25;10474139;28;20051;-60
2023/08/08 00:21:10;;;;;;;1.20;0.90;;;;;;;12.61;62.47;99933.34;10473576;28;20084;-60
2023/08/08 00:26:12;;;;;;;5.05;1.70;;;;;;;12.58;62.78;99931.78;10455519;28;20139;-60
2023/08/08 00:31:17;;;;;;;0.95;0.90;;;;;;;12.52;62.92;99926.94;10473754;28;20492;-60
2023/08/08 00:36:19;;;;;;;5.38;1.30;;;;;;;12.53;63.22;99935.66;10455647;28;20048;-58
2023/08/08 00:41:21;;;;;;;1.40;0.95;;;;;;;12.55;63.04;99926.75;10455256;28;20049;-59
2023/08/08 00:46:24;;;;;;;2.75;1.00;;;;;;;12.54;63.11;99924.22;10455962;28;20056;-58
2023/08/08 00:51:26;;;;;;;5.60;1.10;;;;;;;12.50;63.28;99910.47;10455141;28;20086;-58
2023/08/08 00:56:29;;;;;;;1.98;1.10;;;;;;;12.61;63.23;99902.72;10454596;28;20049;-58
2023/08/08 01:01:31;;;;;;;2.22;1.00;;;;;;;12.64;63.46;99902.50;10471580;28;20094;-58
2023/08/08 01:06:48;;;;;;;1.33;1.00;;;;;;;12.68;63.96;99897.91;10470464;28;20047;-59
2023/08/08 01:11:52;;;;;;;0.90;0.82;;;;;;;12.63;63.34;99892.97;10471531;28;20056;-58
2023/08/08 01:16:57;;;;;;;2.85;1.33;;;;;;;12.56;63.52;99894.31;10472196;28;20044;-58
2023/08/08 01:22:14;;;;;;;2.22;1.10;;;;;;;12.44;64.25;99904.78;10453723;28;20094;-58
2023/08/08 01:27:17;;;;;;;2.25;0.93;;;;;;;12.44;63.69;99896.94;10453461;28;20052;-58
2023/08/08 01:32:19;;;;;;;1.35;1.00;;;;;;;12.50;63.87;99892.09;10452064;28;20447;-58
2023/08/08 01:37:27;;;;;;;3.60;1.13;;;;;;;12.49;63.94;99893.06;10469226;28;20293;-59
2023/08/08 01:42:30;;;;;;;4.18;0.88;;;;;;;12.60;63.67;99881.84;10468569;28;20033;-59
2023/08/08 01:47:32;;;;;;;1.42;1.13;;;;;;;12.67;63.43;99881.31;10470763;28;20044;-59
2023/08/08 01:52:34;;;;;;;1.67;1.05;;;;;;;12.60;63.27;99882.66;10485661;28;20492;-59
2023/08/08 01:57:37;;;;;;;3.75;1.20;;;;;;;12.62;63.25;99885.19;10486010;28;20052;-59
2023/08/08 02:02:39;;;;;;;1.10;1.00;;;;;;;12.58;63.40;99874.06;10454995;28;20823;-59
2023/08/08 02:07:41;;;;;;;1.95;1.20;;;;;;;12.44;63.44;99866.28;10476604;28;20216;-59
2023/08/08 02:12:43;;;;;;;2.17;1.15;;;;;;;12.41;63.55;99860.44;10458180;28;20059;-59
2023/08/08 02:17:47;;;;;;;0.98;0.95;;;;;;;12.38;63.72;99874.59;10449051;28;20098;-59
2023/08/08 02:22:49;;;;;;;0.95;0.80;;;;;;;12.46;63.52;99863.56;10458520;28;20969;-59
2023/08/08 02:27:51;;;;;;;1.48;1.00;;;;;;;12.46;63.64;99861.78;10465334;28;20076;-59
2023/08/08 02:32:53;;;;;;;2.88;1.23;;;;;;;12.39;63.79;99852.69;10459388;28;20044;-59
2023/08/08 02:37:55;;;;;;;2.35;1.20;;;;;;;12.33;63.99;99862.75;10475185;28;20500;-59
2023/08/08 02:42:57;;;;;;;2.90;1.13;;;;;;;12.26;63.98;99862.28;10480180;28;20151;-59
2023/08/08 02:47:59;;;;;;;1.00;0.80;;;;;;;12.25;64.07;99870.25;10450119;28;20056;-59
2023/08/08 02:53:02;;;;;;;1.75;1.08;;;;;;;12.23;64.22;99872.13;10473487;28;20150;-59
2023/08/08 02:58:09;;;;;;;3.22;1.40;;;;;;;12.19;63.99;99866.28;10459604;28;20048;-59
2023/08/08 03:03:11;;;;;;;2.72;0.93;;;;;;;12.12;64.39;99876.31;10450273;28;20115;-59
2023/08/08 03:08:14;;;;;;;1.00;0.90;;;;;;;12.09;64.34;99871.28;10457850;28;20053;-59
2023/08/08 03:13:17;;;;;;;2.95;1.20;;;;;;;12.02;64.55;99858.69;10459882;28;20041;-60
2023/08/08 03:18:19;;;;;;;1.77;1.02;;;;;;;12.03;64.46;99855.09;10476404;28;20527;-59
2023/08/08 03:23:23;;;;;;;1.55;0.93;;;;;;;12.04;64.39;99848.94;10462858;28;20060;-59
2023/08/08 03:28:26;;;;;;;1.55;1.10;;;;;;;11.98;64.42;99852.81;10458533;28;20041;-59
2023/08/08 03:33:30;;;;;;;1.98;0.90;;;;;;;11.94;64.24;99848.72;10443461;28;20048;-59
2023/08/08 03:38:37;;;;;;;1.95;1.27;;;;;;;11.91;64.29;99846.28;10451730;28;20057;-59
2023/08/08 03:43:40;;;;;;;3.25;1.40;;;;;;;11.90;64.43;99855.09;10453120;28;20048;-59
2023/08/08 03:48:42;;;;;;;1.85;1.20;;;;;;;11.88;64.34;99848.28;10472532;28;20075;-59
2023/08/08 03:53:44;;;;;;;0.93;0.80;;;;;;;11.87;64.62;99847.44;10437643;28;20056;-59
2023/08/08 03:58:46;;;;;;;4.97;1.08;;;;;;;11.89;64.47;99842.06;10449774;28;20045;-59
2023/08/08 04:03:48;;;;;;;1.65;1.05;;;;;;;11.86;64.53;99847.53;10472190;28;20083;-59
2023/08/08 04:08:50;;;;;;;2.65;1.00;;;;;;;11.85;64.56;99851.94;10451118;28;20041;-59
2023/08/08 04:13:52;;;;;;;2.03;1.10;;;;;;;11.79;64.55;99852.34;10445194;28;20114;-60
2023/08/08 04:18:54;;;;;;;1.02;0.90;;;;;;;11.78;64.68;99837.56;10490434;28;20041;-60
2023/08/08 04:23:56;;;;;;;1.90;0.88;;;;;;;11.80;64.70;99838.31;10470752;28;20068;-59
2023/08/08 04:28:58;;;;;;;2.00;0.88;;;;;;;11.83;64.64;99838.09;10451544;28;20429;-59
2023/08/08 04:34:02;;;;;;;3.05;1.08;;;;;;;11.87;64.55;99841.34;10466967;28;20044;-59
2023/08/08 04:39:04;;;;;;;1.02;0.93;;;;;;;11.92;64.56;99841.88;10475975;28;20044;-60
2023/08/08 04:44:06;;;;;;;1.10;0.90;;;;;;;12.09;64.78;99839.81;10467698;28;20037;-60
2023/08/08 04:49:08;;;;;;;1.15;0.90;;;;;;;14.16;61.96;99816.09;10466787;28;20048;-61
2023/08/08 04:54:10;;;;;;;1.95;1.20;;;;;;;16.30;57.31;99817.06;10468897;28;20124;-61
2023/08/08 04:59:12;;;;;;;2.50;1.10;;;;;;;18.33;53.15;99808.41;10470110;28;20138;-60
2023/08/08 05:04:14;;;;;;;1.63;1.00;;;;;;;19.59;50.96;99798.81;10467935;28;20048;-58
2023/08/08 05:09:20;;;;;;;1.17;0.95;;;;;;;20.84;48.33;99793.91;10472142;28;20048;-59
2023/08/08 05:14:22;;;;;;;0.70;0.70;;;;;;;21.81;46.10;99790.47;10467579;28;20408;-59
2023/08/08 05:19:25;;;;;;;1.27;0.75;;;;;;;22.16;44.94;99781.31;10477927;28;20053;-59
2023/08/08 05:24:27;;;;;;;1.95;0.80;;;;;;;20.15;46.43;99797.47;10471109;28;20080;-59
2023/08/08 05:29:29;;;;;;;2.25;0.73;;;;;;;17.95;49.54;99794.38;10448497;28;20135;-60
2023/08/08 05:34:31;;;;;;;1.30;0.82;;;;;;;16.92;51.03;99798.44;10455715;28;20123;-59
2023/08/08 05:39:33;;;;;;;2.97;1.20;;;;;;;16.13;52.08;99802.66;10472434;28;20432;-59
2023/08/08 05:44:35;;;;;;;1.63;0.73;;;;;;;15.53;53.37;99806.94;10471527;28;20037;-59
2023/08/08 05:49:38;;;;;;;0.82;0.77;;;;;;;15.31;53.71;99802.53;10444685;28;20053;-59
2023/08/08 05:54:41;;;;;;;2.22;0.80;;;;;;;15.14;54.02;99798.63;10472902;28;20051;-60
2023/08/08 05:59:44;;;;;;;0.93;0.70;;;;;;;14.93;54.30;99807.41;10468616;28;20040;-59
2023/08/08 06:04:47;;;;;;;3.13;1.05;;;;;;;14.84;54.70;99806.34;10446217;28;20468;-59
2023/08/08 06:09:49;;;;;;;2.55;1.67;;;;;;;14.79;55.03;99813.78;10467086;28;20534;-59
2023/08/08 06:14:51;;;;;;;0.60;0.60;;;;;;;14.82;54.80;99815.34;10474227;28;20056;-59
2023/08/08 06:19:54;;;;;;;1.35;0.80;;;;;;;14.76;55.17;99805.28;10473170;28;20036;-59
2023/08/08 06:24:56;;;;;;;1.13;0.70;;;;;;;14.75;55.04;99803.59;10447145;28;20049;-59
2023/08/08 06:29:59;;;;;;;1.80;0.80;;;;;;;14.79;55.14;99811.16;10470023;28;20048;-60
2023/08/08 06:35:01;;;;;;;7.60;1.02;;;;;;;14.88;54.71;99809.59;10469230;28;20064;-60
2023/08/08 06:40:04;;;;;;;1.38;0.80;;;;;;;14.92;54.62;99811.84;10472878;28;20052;-60
2023/08/08 06:45:24;;;;;;;0.77;0.73;;;;;;;14.96;54.53;99809.81;10472556;28;20090;-59
2023/08/08 06:50:26;;;;;;;0.80;0.80;;;;;;;15.20;54.09;99815.75;10468627;28;20052;-60
2023/08/08 06:55:28;;;;;;;2.78;0.80;;;;;;;15.25;53.82;99805.66;10473912;28;20517;-60
2023/08/08 07:00:30;;;;;;;1.10;0.80;;;;;;;15.37;53.75;99808.13;10472085;28;20492;-60
2023/08/08 07:05:32;;;;;;;2.90;1.08;;;;;;;15.49;53.07;99808.13;10475473;28;20043;-60
2023/08/08 07:10:35;;;;;;;2.85;0.60;;;;;;;15.52;52.53;99799.97;10473055;28;20121;-60
2023/08/08 07:15:37;;;;;;;1.00;0.90;;;;;;;15.41;52.78;99808.72;10477567;28;20174;-60
2023/08/08 07:20:40;;;;;;;3.05;0.80;;;;;;;15.59;52.50;99804.59;10482267;28;20583;-60
2023/08/08 07:25:42;;;;;;;1.45;0.90;;;;;;;15.72;52.55;99807.06;10493971;28;20425;-60
2023/08/08 07:30:44;;;;;;;1.35;1.00;;;;;;;15.98;52.32;99808.38;10483720;28;20045;-60
2023/08/08 07:35:46;;;;;;;0.57;0.57;;;;;;;16.67;51.04;99802.38;10464768;28;20040;-59
2023/08/08 07:40:48;;;;;;;1.67;1.00;;;;;;;17.43;50.80;99793.84;10482894;28;20044;-59
2023/08/08 07:45:50;;;;;;;7.78;1.25;;;;;;;19.25;48.66;99791.53;10483088;28;20106;-59
2023/08/08 07:50:52;;;;;;;1.90;0.90;;;;;;;20.29;43.73;99799.53;10482697;28;20048;-60
2023/08/08 07:55:54;;;;;;;2.65;1.08;;;;;;;21.07;44.39;99785.16;10482741;28;20138;-60
2023/08/08 08:00:56;;;;;;;1.13;0.90;;;;;;;21.62;44.09;99789.97;10497677;28;20041;-60
2023/08/08 08:05:58;;;;;;;2.75;1.00;;;;;;;22.41;40.89;99788.22;10482464;28;20044;-60
2023/08/08 08:11:02;;;;;;;5.32;1.23;;;;;;;20.83;41.76;99795.72;10481946;28;20044;-60
2023/08/08 08:16:04;;;;;;;1.80;0.90;;;;;;;19.92;44.85;99791.00;10482353;28;20534;-60
2023/08/08 08:21:06;;;;;;;0.88;0.77;;;;;;;19.81;44.96;99793.03;10480714;28;20393;-60
2023/08/08 08:26:08;;;;;;;1.95;0.98;;;;;;;19.55;45.41;99790.31;10496676;28;20509;-59
2023/08/08 08:31:10;;;;;;;0.65;0.65;;;;;;;19.78;45.15;99788.03;10481455;28;20075;-60
2023/08/08 08:36:12;;;;;;;1.15;0.90;;;;;;;19.26;45.72;99779.94;10480849;28;20041;-59
2023/08/08 08:41:18;;;;;;;2.65;1.00;;;;;;;19.13;45.82;99783.94;10461577;28;20048;-59
2023/08/08 08:46:22;;;;;;;1.58;0.77;;;;;;;19.74;45.41;99784.88;10463101;28;20068;-59
2023/08/08 08:51:24;;;;;;;1.20;0.77;;;;;;;20.82;43.69;99783.44;10480351;28;20071;-60
2023/08/08 08:56:27;;;;;;;1.17;0.90;;;;;;;21.98;42.34;99783.31;10480170;28;20143;-60
2023/08/08 09:01:29;;;;;;;1.23;0.80;;;;;;;22.73;41.28;99765.16;10480449;28;20044;-60
2023/08/08 09:06:32;;;;;;;5.60;1.15;;;;;;;21.99;41.34;99768.13;10480539;28;20495;-59
2023/08/08 09:11:34;;;;;;;1.15;0.85;;;;;;;21.45;42.34;99777.63;10479495;28;20044;-59
2023/08/08 09:16:36;;;;;;;1.15;0.95;;;;;;;21.27;42.49;99776.91;10479632;28;20136;-59
2023/08/08 09:21:38;;;;;;;1.40;0.90;;;;;;;21.17;41.58;99771.72;10476681;28;20057;-60
2023/08/08 09:26:42;;;;;;;1.65;0.90;;;;;;;21.81;41.35;99771.81;10493663;28;20120;-59
2023/08/08 09:31:47;;;;;;;6.07;1.58;;;;;;;22.21;40.50;99772.81;10478390;28;20068;-60
2023/08/08 09:36:49;;;;;;;1.08;0.88;;;;;;;22.27;39.92;99772.16;10478796;28;20028;-60
2023/08/08 09:41:52;;;;;;;1.77;0.85;;;;;;;22.00;40.27;99778.66;10475540;28;20053;-59
2023/08/08 09:46:54;;;;;;;1.35;0.90;;;;;;;22.21;39.92;99760.31;10460170;28;20044;-59
2023/08/08 09:51:56;;;;;;;1.38;0.88;;;;;;;21.98;40.85;99756.69;10476262;28;20086;-59
2023/08/08 09:56:59;;;;;;;4.85;1.00;;;;;;;21.81;40.36;99763.00;10477786;28;20052;-59
2023/08/08 10:02:01;;;;;;;3.50;1.10;;;;;;;21.74;40.66;99764.69;10475429;28;20044;-59
2023/08/08 10:07:04;;;;;;;7.30;1.40;;;;;;;21.58;39.52;99767.31;10477570;28;20032;-59
2023/08/08 10:12:07;;;;;;;3.65;1.38;;;;;;;21.16;40.43;99761.25;10477690;28;20087;-59
2023/08/08 10:17:14;;;;;;;2.17;0.90;;;;;;;21.37;40.19;99757.19;10477221;28;20135;-59
2023/08/08 10:22:22;;;;;;;2.05;1.00;;;;;;;21.86;39.93;99755.34;10477309;28;20106;-60
2023/08/08 10:27:31;;;;;;;1.42;0.98;;;;;;;21.77;39.73;99749.19;10458418;28;20386;-59
2023/08/08 10:32:46;;;;;;;1.20;0.90;;;;;;;21.60;39.60;99760.00;10476963;28;20428;-59
2023/08/08 10:37:53;;;;;;;2.40;1.48;;;;;;;21.49;39.72;99760.34;10476377;28;20063;-59
2023/08/08 10:42:55;;;;;;;2.17;0.88;;;;;;;21.84;40.43;99758.16;10456318;28;20040;-59
2023/08/08 10:48:08;;;;;;;1.80;1.00;;;;;;;21.78;39.14;99755.38;10476506;28;20063;-59
2023/08/08 10:53:10;;;;;;;1.50;0.90;;;;;;;21.71;40.22;99762.34;10476946;28;20051;-60
2023/08/08 10:58:19;;;;;;;4.47;1.00;;;;;;;21.75;39.25;99775.16;10472875;28;20052;-60
2023/08/08 11:03:23;;;;;;;5.43;1.80;;;;;;;21.47;39.94;99765.84;10475769;28;20041;-60
2023/08/08 11:08:25;;;;;;;1.63;0.95;;;;;;;21.57;40.05;99765.66;10473768;28;20110;-60
2023/08/08 11:13:27;;;;;;;0.95;0.88;;;;;;;21.60;39.80;99755.50;10475564;28;20086;-60
2023/08/08 11:18:30;;;;;;;3.13;1.00;;;;;;;21.76;39.98;99754.69;10457190;28;20109;-60
2023/08/08 11:23:37;;;;;;;1.98;1.00;;;;;;;22.00;39.25;99751.19;10475118;28;20044;-61
2023/08/08 11:28:48;;;;;;;1.10;0.73;;;;;;;22.01;39.34;99747.50;10457044;28;20926;-60
2023/08/08 11:33:50;;;;;;;1.27;0.80;;;;;;;22.06;39.02;99745.19;10475051;28;20714;-59
2023/08/08 11:38:53;;;;;;;1.23;0.80;;;;;;;22.03;38.95;99735.72;10475757;28;20469;-59
2023/08/08 11:43:56;;;;;;;2.78;1.13;;;;;;;21.86;38.48;99734.06;10474271;28;20124;-59
2023/08/08 11:49:06;;;;;;;1.02;0.93;;;;;;;21.39;38.38;99741.03;10456711;28;20052;-59
2023/08/08 11:54:08;;;;;;;1.65;0.90;;;;;;;20.82;40.05;99750.69;10476766;28;20072;-60
2023/08/08 11:59:12;;;;;;;1.30;0.98;;;;;;;20.92;40.02;99744.25;10482083;28;20218;-60
2023/08/08 12:04:15;;;;;;;0.68;0.68;;;;;;;21.40;39.64;99732.06;10481798;28;20057;-60
2023/08/08 12:09:17;;;;;;;3.15;1.25;;;;;;;21.24;39.43;99732.00;10481776;28;20565;-60
2023/08/08 12:14:19;;;;;;;1.27;0.88;;;;;;;20.69;40.31;99743.19;10464123;28;20423;-60
2023/08/08 12:19:25;;;;;;;2.67;1.10;;;;;;;20.20;40.64;99735.94;10463138;28;20453;-60
2023/08/08 12:24:27;;;;;;;2.05;0.88;;;;;;;19.74;41.49;99738.91;10480548;28;20052;-60
2023/08/08 12:29:29;;;;;;;1.75;1.08;;;;;;;19.59;41.90;99743.09;10480639;28;20068;-60
2023/08/08 12:34:31;;;;;;;2.00;0.85;;;;;;;19.67;42.03;99740.50;10480857;28;20411;-60
2023/08/08 12:39:33;;;;;;;1.40;0.90;;;;;;;19.98;41.72;99728.50;10478877;28;20565;-61
2023/08/08 12:44:35;;;;;;;1.52;0.68;;;;;;;19.98;41.52;99732.00;10480356;28;20052;-60
2023/08/08 12:49:37;;;;;;;1.73;1.05;;;;;;;19.89;41.95;99726.75;10480212;28;20040;-60
2023/08/08 12:54:39;;;;;;;3.67;0.90;;;;;;;19.95;41.64;99724.31;10479826;28;20182;-60
2023/08/08 12:59:41;;;;;;;0.88;0.70;;;;;;;20.05;41.27;99716.28;10479771;28;20040;-60
2023/08/08 13:04:43;;;;;;;2.58;0.82;;;;;;;20.37;41.29;99716.44;10479373;28;20098;-60
2023/08/08 13:09:45;;;;;;;2.63;0.90;;;;;;;20.07;41.06;99706.34;10479164;28;20123;-60
2023/08/08 13:14:47;;;;;;;3.00;0.90;;;;;;;19.80;42.00;99719.72;10479143;28;20139;-59
2023/08/08 13:19:49;;;;;;;1.33;0.77;;;;;;;19.46;41.97;99720.44;10478546;28;20557;-60
2023/08/08 13:24:51;;;;;;;2.97;1.23;;;;;;;19.48;42.15;99722.13;10478611;28;20075;-60
2023/08/08 13:29:53;;;;;;;1.92;1.10;;;;;;;19.33;42.69;99729.78;10478273;28;20041;-60
2023/08/08 13:34:55;;;;;;;1.15;0.80;;;;;;;19.16;42.70;99722.66;10493427;28;20535;-60
2023/08/08 13:39:57;;;;;;;1.10;0.73;;;;;;;19.13;42.59;99718.50;10459940;28;20401;-59
2023/08/08 13:44:59;;;;;;;2.03;1.00;;;;;;;19.50;42.30;99726.31;10478160;28;20155;-60
2023/08/08 13:50:02;;;;;;;2.72;0.70;;;;;;;20.01;41.67;99712.28;10476990;28;20123;-59
2023/08/08 13:55:05;;;;;;;2.08;0.82;;;;;;;20.40;41.22;99704.69;10459734;28;20051;-59
2023/08/08 14:00:10;;;;;;;1.10;0.73;;;;;;;20.39;41.23;99697.69;10459046;28;20079;-59
2023/08/08 14:05:13;;;;;;;1.25;0.73;;;;;;;20.23;41.35;99701.09;10476591;28;20074;-59
2023/08/08 14:10:15;;;;;;;2.03;0.90;;;;;;;19.91;41.98;99696.44;10477200;28;20060;-60
2023/08/08 14:15:17;;;;;;;1.30;0.80;;;;;;;19.54;42.04;99700.28;10492026;28;20060;-59
2023/08/08 14:20:19;;;;;;;1.02;1.00;;;;;;;19.45;42.73;99697.56;10475372;28;20041;-59
2023/08/08 14:25:22;;;;;;;2.35;1.15;;;;;;;19.29;42.83;99708.06;10392925;28;20524;-60
2023/08/08 14:30:27;;;;;;;2.05;1.15;;;;;;;19.26;43.32;99711.00;10392757;28;20049;-59
2023/08/08 14:35:29;;;;;;;1.98;1.00;;;;;;;19.23;43.74;99708.66;10393128;28;20683;-59
2023/08/08 14:40:32;;;;;;;3.00;2.08;;;;;;;19.26;43.72;99708.34;10392704;28;20548;-59
2023/08/08 14:45:38;;;;;;;3.55;1.55;;;;;;;19.23;43.99;99705.16;10392898;28;20049;-59
2023/08/08 14:50:40;;;;;;;2.28;1.20;;;;;;;19.48;43.70;99709.72;10390814;28;20076;-59
2023/08/08 14:55:42;;;;;;;1.98;1.13;;;;;;;19.72;43.49;99714.34;10392136;28;20203;-59
2023/08/08 15:00:44;;;;;;;1.65;1.05;;;;;;;19.59;43.97;99725.38;10390834;28;20041;-59
2023/08/08 15:05:48;;;;;;;1.15;0.80;;;;;;;19.65;43.27;99721.25;10391802;28;20107;-60
2023/08/08 15:10:50;;;;;;;1.42;0.82;;;;;;;20.20;42.86;99727.97;10391563;28;20104;-60
2023/08/08 15:15:52;;;;;;;2.83;1.73;;;;;;;20.85;42.01;99715.81;10392487;28;20073;-60
2023/08/08 15:20:54;;;;;;;2.25;1.25;;;;;;;21.07;40.79;99710.72;10401222;28;20114;-59
2023/08/08 15:25:59;;;;;;;0.70;0.70;;;;;;;20.96;40.89;99719.00;10475438;28;20037;-60
2023/08/08 15:31:01;;;;;;;2.75;1.63;;;;;;;21.14;40.85;99718.03;10480421;28;20048;-59
2023/08/08 15:36:03;;;;;;;2.70;1.17;;;;;;;20.93;40.63;99723.81;10482908;28;20401;-59
2023/08/08 15:41:05;;;;;;;2.63;1.65;;;;;;;20.96;40.95;99726.16;10464614;28;20503;-59
2023/08/08 15:46:07;;;;;;;1.38;0.90;;;;;;;20.80;41.17;99724.28;10482731;28;20135;-60
2023/08/08 15:51:10;;;;;;;1.67;1.13;;;;;;;20.80;41.08;99721.63;10482723;28;20125;-59
2023/08/08 15:56:12;;;;;;;0.90;0.80;;;;;;;21.12;40.62;99723.53;10463329;28;20080;-60
2023/08/08 16:01:14;;;;;;;1.23;0.80;;;;;;;20.90;40.44;99719.66;10481778;28;20084;-59
2023/08/08 16:06:16;;;;;;;1.75;0.95;;;;;;;20.68;41.18;99725.56;10481603;28;20393;-59
2023/08/08 16:11:18;;;;;;;2.20;1.05;;;;;;;20.63;41.50;99730.53;10482335;28;20131;-59
2023/08/08 16:16:20;;;;;;;6.63;2.47;;;;;;;20.54;41.71;99727.97;10481323;28;20049;-60
2023/08/08 16:21:22;;;;;;;3.90;1.85;;;;;;;20.56;41.60;99724.16;10496470;28;20454;-60
2023/08/08 16:26:24;;;;;;;5.07;1.50;;;;;;;20.23;42.07;99730.31;10480785;28;20242;-59
2023/08/08 16:31:26;;;;;;;6.10;2.15;;;;;;;20.14;42.15;99721.47;10480018;28;20768;-59
2023/08/08 16:36:28;;;;;;;3.42;1.40;;;;;;;20.10;42.17;99727.25;10462410;28;20052;-59
2023/08/08 16:41:30;;;;;;;5.07;1.40;;;;;;;20.06;42.70;99715.28;10479696;28;20501;-59
2023/08/08 16:46:32;;;;;;;1.77;1.10;;;;;;;19.94;42.96;99725.31;10480289;28;20164;-59
2023/08/08 16:51:34;;;;;;;2.55;0.90;;;;;;;19.88;43.01;99720.66;10462528;28;20130;-59
2023/08/08 16:56:36;;;;;;;1.13;0.70;;;;;;;19.85;43.11;99733.38;10461855;28;20165;-60
2023/08/08 17:01:41;;;;;;;1.42;0.80;;;;;;;19.82;43.29;99737.19;10480206;28;20121;-60
2023/08/08 17:06:43;;;;;;;1.10;0.80;;;;;;;19.92;42.98;99737.09;10493965;28;20311;-59
2023/08/08 17:11:45;;;;;;;4.00;0.80;;;;;;;19.69;43.18;99735.88;10479858;28;20080;-60
2023/08/08 17:16:47;;;;;;;4.20;0.85;;;;;;;19.60;43.22;99742.13;10479272;28;20245;-59
2023/08/08 17:21:49;;;;;;;2.58;0.98;;;;;;;19.48;43.40;99742.34;10479008;28;20416;-59
2023/08/08 17:26:51;;;;;;;6.68;0.95;;;;;;;19.28;44.01;99747.94;10461182;28;20048;-58
2023/08/08 17:31:53;;;;;;;2.50;1.00;;;;;;;19.16;43.99;99739.41;10479120;28;20534;-59
2023/08/08 17:36:55;;;;;;;2.92;0.85;;;;;;;19.13;44.10;99749.47;10492514;28;20660;-59
2023/08/08 17:41:57;;;;;;;3.50;1.17;;;;;;;19.12;44.20;99750.44;10477737;28;20131;-59
2023/08/08 17:47:00;;;;;;;2.35;1.05;;;;;;;19.00;44.52;99752.47;10476886;28;20068;-59
2023/08/08 17:52:02;;;;;;;5.65;1.25;;;;;;;19.08;44.44;99741.97;10459089;28;20123;-60
2023/08/08 17:57:04;;;;;;;2.13;1.10;;;;;;;19.12;44.50;99731.88;10477361;28;20041;-58
2023/08/08 18:02:06;;;;;;;3.15;0.90;;;;;;;19.05;44.98;99729.03;10477821;28;20147;-59
2023/08/08 18:07:09;;;;;;;4.32;1.73;;;;;;;19.01;44.96;99721.50;10476545;28;20041;-59
2023/08/08 18:12:11;;;;;;;1.92;1.02;;;;;;;19.00;45.20;99715.34;10477087;28;20053;-60
2023/08/08 18:17:13;;;;;;;1.33;0.77;;;;;;;18.90;45.34;99716.38;10476138;28;20121;-60
2023/08/08 18:22:16;;;;;;;1.20;0.80;;;;;;;18.79;45.70;99722.72;10476459;28;20135;-60
2023/08/08 18:27:18;;;;;;;2.33;1.10;;;;;;;18.67;45.90;99710.66;10458007;28;20133;-60
2023/08/08 18:32:21;;;;;;;4.63;1.45;;;;;;;18.55;45.87;99714.50;10476499;28;20075;-60
2023/08/08 18:37:23;;;;;;;0.70;0.70;;;;;;;18.33;46.45;99720.19;10476362;28;20055;-57
2023/08/08 18:42:25;;;;;;;0.82;0.80;;;;;;;18.19;46.64;99723.28;10476323;28;20056;-60
2023/08/08 18:47:27;;;;;;;2.00;1.30;;;;;;;18.10;46.60;99729.41;10475773;28;20127;-60
2023/08/08 18:52:29;;;;;;;1.20;0.82;;;;;;;18.02;46.90;99732.78;10475926;28;20040;-60
2023/08/08 18:57:33;;;;;;;0.70;0.70;;;;;;;17.91;47.01;99729.50;10475632;28;20135;-60
2023/08/08 19:02:35;;;;;;;3.17;0.90;;;;;;;17.82;47.31;99726.72;10475811;28;20055;-60
2023/08/08 19:07:37;;;;;;;3.22;1.60;;;;;;;17.81;47.04;99740.09;10483916;28;20511;-60
2023/08/08 19:12:39;;;;;;;2.17;1.00;;;;;;;17.68;47.47;99742.19;10484008;28;20405;-60
2023/08/08 19:17:41;;;;;;;2.92;1.10;;;;;;;17.66;47.48;99738.88;10483728;28;20052;-60
2023/08/08 19:22:57;;;;;;;6.97;1.77;;;;;;;17.42;47.77;99741.94;10467723;28;20052;-60
2023/08/08 19:27:59;;;;;;;0.80;0.70;;;;;;;17.30;47.97;99743.00;10483432;28;20562;-60
2023/08/08 19:33:01;;;;;;;1.35;1.00;;;;;;;17.24;48.61;99751.47;10483470;28;20117;-60
2023/08/08 19:38:04;;;;;;;1.95;0.80;;;;;;;17.33;48.47;99747.19;10483449;28;20044;-59
2023/08/08 19:43:06;;;;;;;0.75;0.73;;;;;;;17.35;48.44;99739.97;10482489;28;20037;-58
2023/08/08 19:48:08;;;;;;;1.65;1.10;;;;;;;17.28;48.61;99744.13;10464582;28;20053;-59
2023/08/08 19:53:10;;;;;;;6.78;1.52;;;;;;;17.28;48.78;99734.38;10481585;28;20485;-59
2023/08/08 19:58:12;;;;;;;1.90;0.90;;;;;;;17.24;48.62;99732.97;10482374;28;20037;-59
2023/08/08 20:03:14;;;;;;;0.70;0.70;;;;;;;17.17;49.07;99721.31;10482197;28;20054;-59
2023/08/08 20:08:17;;;;;;;2.97;1.00;;;;;;;17.19;49.32;99710.59;10481286;28;20036;-59
2023/08/08 20:13:19;;;;;;;1.38;0.80;;;;;;;17.18;49.26;99709.75;10481602;28;20130;-59
2023/08/08 20:18:21;;;;;;;1.65;0.75;;;;;;;17.11;49.45;99723.66;10463522;28;20052;-59
2023/08/08 20:23:24;;;;;;;1.50;1.00;;;;;;;17.02;49.43;99720.03;10462921;28;20135;-59
2023/08/08 20:28:26;;;;;;;1.65;1.00;;;;;;;16.95;49.67;99722.41;10480846;28;20461;-59
2023/08/08 20:33:28;;;;;;;0.90;0.73;;;;;;;16.99;50.03;99728.25;10480561;28;20082;-59
2023/08/08 20:38:30;;;;;;;1.77;1.00;;;;;;;16.87;50.19;99726.72;10480616;28;20144;-59
2023/08/08 20:43:33;;;;;;;0.95;0.70;;;;;;;16.91;50.93;99726.31;10461386;28;20049;-59
2023/08/08 20:48:35;;;;;;;1.60;0.82;;;;;;;16.87;51.45;99734.63;10480843;28;20122;-59
2023/08/08 20:53:37;;;;;;;4.18;0.88;;;;;;;16.67;52.61;99739.00;10480797;28;20376;-59
2023/08/08 20:58:39;;;;;;;4.00;1.27;;;;;;;16.44;54.10;99744.63;10479988;28;20053;-59
2023/08/08 21:03:41;;;;;;;1.95;0.93;;;;;;;16.22;55.28;99730.63;10479495;28;20052;-59
2023/08/08 21:08:43;;;;;;;1.20;0.85;;;;;;;16.14;56.23;99711.97;10479723;28;20086;-59
2023/08/08 21:13:46;;;;;;;1.30;0.90;;;;;;;16.04;56.75;99710.28;10479632;28;20140;-59
2023/08/08 21:18:48;;;;;;;0.90;0.80;;;;;;;15.97;57.31;99709.97;10443677;28;20052;-59
2023/08/08 21:23:50;;;;;;;3.63;1.02;;;;;;;15.85;57.85;99718.91;10460663;28;20143;-59
2023/08/08 21:28:52;;;;;;;4.32;1.08;;;;;;;15.78;59.69;99727.47;10477885;28;20033;-59
2023/08/08 21:33:54;;;;;;;3.38;1.30;;;;;;;15.62;59.24;99733.19;10478549;28;20045;-59
2023/08/08 21:38:57;;;;;;;2.67;1.17;;;;;;;15.50;60.07;99728.94;10478645;28;20433;-59
2023/08/08 21:43:59;;;;;;;1.90;0.80;;;;;;;15.49;60.31;99718.50;10459500;28;20110;-59
2023/08/08 21:49:01;;;;;;;2.40;1.27;;;;;;;15.55;60.80;99720.66;10459243;28;20140;-59
2023/08/08 21:54:04;;;;;;;2.70;0.93;;;;;;;15.51;61.06;99712.16;10477179;28;20071;-58
2023/08/08 21:59:06;;;;;;;1.05;0.88;;;;;;;15.35;62.76;99709.09;10477697;28;20048;-59
2023/08/08 22:04:08;;;;;;;1.38;1.00;;;;;;;15.41;61.89;99703.31;10478348;28;20067;-59
2023/08/08 22:09:10;;;;;;;1.60;1.10;;;;;;;15.53;61.77;99698.88;10476641;28;20037;-59
2023/08/08 22:14:13;;;;;;;1.88;1.05;;;;;;;15.56;62.10;99690.69;10477156;28;20048;-59
2023/08/08 22:19:15;;;;;;;2.35;1.00;;;;;;;15.48;62.40;99677.28;10458782;28;20131;-59
2023/08/08 22:24:17;;;;;;;6.95;1.35;;;;;;;15.48;62.62;99677.28;10476467;28;20082;-59
2023/08/08 22:29:20;;;;;;;1.77;0.95;;;;;;;15.45;62.98;99665.19;10477053;28;20048;-59
2023/08/08 22:34:22;;;;;;;2.03;0.93;;;;;;;15.44;63.11;99663.53;10476433;28;20048;-59
2023/08/08 22:39:24;;;;;;;2.88;1.30;;;;;;;15.36;63.57;99665.97;10475259;28;20050;-59
2023/08/08 22:44:26;;;;;;;1.55;0.98;;;;;;;15.39;63.41;99653.38;10476345;28;20102;-59
2023/08/08 22:49:28;;;;;;;1.17;0.98;;;;;;;15.37;63.69;99643.91;10476027;28;20049;-59
2023/08/08 22:54:30;;;;;;;2.38;1.17;;;;;;;15.37;63.83;99641.28;10476232;28;20055;-60
2023/08/08 22:59:32;;;;;;;2.22;1.10;;;;;;;15.30;63.82;99640.16;10456862;28;20186;-59
2023/08/08 23:04:34;;;;;;;1.70;1.17;;;;;;;15.25;64.02;99631.78;10475995;28;20177;-59
2023/08/08 23:09:36;;;;;;;2.88;1.50;;;;;;;15.28;64.63;99631.53;10474768;28;20132;-60
2023/08/08 23:14:38;;;;;;;1.30;1.20;;;;;;;15.31;64.20;99615.44;10475705;28;20394;-59
2023/08/08 23:19:40;;;;;;;4.55;1.00;;;;;;;15.35;64.26;99627.41;10475462;28;20045;-59
2023/08/08 23:24:42;;;;;;;1.92;0.98;;;;;;;15.36;64.49;99627.28;10475207;28;20053;-59